sensor_id;sensor_type;location;lat;lon;timestamp;P1;durP1;ratioP1;P2;durP2;ratioP2
14019;SDS011;7085;51.428;6.796;2022-07-19T00:01:49;3.65;;;2.88;;
14019;SDS011;7085;51.428;6.796;2022-07-19T00:04:16;4.15;;;2.50;;
14019;SDS011;7085;51.428;6.796;2022-07-19T00:06:43;4.97;;;2.70;;
14019;SDS011;7085;51.428;6.796;2022-07-19T00:09:10;3.70;;;2.88;;
14019;SDS011;7085;51.428;6.796;2022-07-19T00:11:38;4.88;;;3.35;;
14019;SDS011;7085;51.428;6.796;2022-07-19T00:14:05;6.05;;;2.85;;
14019;SDS011;7085;51.428;6.796;2022-07-19T00:16:32;4.78;;;2.97;;
14019;SDS011;7085;51.428;6.796;2022-07-19T00:18:59;3.45;;;2.38;;
14019;SDS011;7085;51.428;6.796;2022-07-19T00:21:26;3.95;;;2.63;;
14019;SDS011;7085;51.428;6.796;2022-07-19T00:23:54;4.75;;;2.80;;
14019;SDS011;7085;51.428;6.796;2022-07-19T00:26:21;3.08;;;2.50;;
14019;SDS011;7085;51.428;6.796;2022-07-19T00:28:49;7.72;;;3.60;;
14019;SDS011;7085;51.428;6.796;2022-07-19T00:31:17;5.68;;;3.20;;
14019;SDS011;7085;51.428;6.796;2022-07-19T00:33:44;3.55;;;2.60;;
14019;SDS011;7085;51.428;6.796;2022-07-19T00:36:11;4.15;;;3.00;;
14019;SDS011;7085;51.428;6.796;2022-07-19T00:38:38;4.47;;;2.70;;
14019;SDS011;7085;51.428;6.796;2022-07-19T00:41:05;3.55;;;2.85;;
14019;SDS011;7085;51.428;6.796;2022-07-19T00:43:32;3.47;;;2.92;;
14019;SDS011;7085;51.428;6.796;2022-07-19T00:46:00;7.47;;;2.92;;
14019;SDS011;7085;51.428;6.796;2022-07-19T00:48:27;5.43;;;3.13;;
14019;SDS011;7085;51.428;6.796;2022-07-19T00:50:55;2.95;;;2.63;;
14019;SDS011;7085;51.428;6.796;2022-07-19T00:53:22;6.07;;;3.00;;
14019;SDS011;7085;51.428;6.796;2022-07-19T00:55:49;9.52;;;3.08;;
14019;SDS011;7085;51.428;6.796;2022-07-19T00:58:17;4.63;;;2.60;;
14019;SDS011;7085;51.428;6.796;2022-07-19T01:00:44;7.97;;;2.90;;
14019;SDS011;7085;51.428;6.796;2022-07-19T01:03:12;3.90;;;2.67;;
14019;SDS011;7085;51.428;6.796;2022-07-19T01:05:39;4.50;;;2.53;;
14019;SDS011;7085;51.428;6.796;2022-07-19T01:08:08;5.65;;;2.50;;
14019;SDS011;7085;51.428;6.796;2022-07-19T01:10:35;3.30;;;2.75;;
14019;SDS011;7085;51.428;6.796;2022-07-19T01:13:02;3.67;;;2.75;;
14019;SDS011;7085;51.428;6.796;2022-07-19T01:15:30;4.57;;;2.75;;
14019;SDS011;7085;51.428;6.796;2022-07-19T01:17:57;7.55;;;2.88;;
14019;SDS011;7085;51.428;6.796;2022-07-19T01:20:25;4.97;;;3.03;;
14019;SDS011;7085;51.428;6.796;2022-07-19T01:22:53;3.47;;;2.90;;
14019;SDS011;7085;51.428;6.796;2022-07-19T01:25:21;3.40;;;2.20;;
14019;SDS011;7085;51.428;6.796;2022-07-19T01:27:48;4.53;;;2.90;;
14019;SDS011;7085;51.428;6.796;2022-07-19T01:30:16;3.78;;;2.50;;
14019;SDS011;7085;51.428;6.796;2022-07-19T01:32:44;4.93;;;2.78;;
14019;SDS011;7085;51.428;6.796;2022-07-19T01:35:12;3.25;;;2.42;;
14019;SDS011;7085;51.428;6.796;2022-07-19T01:37:39;5.95;;;2.72;;
14019;SDS011;7085;51.428;6.796;2022-07-19T01:40:09;3.88;;;2.50;;
14019;SDS011;7085;51.428;6.796;2022-07-19T01:42:36;3.97;;;2.40;;
14019;SDS011;7085;51.428;6.796;2022-07-19T01:45:04;5.35;;;2.28;;
14019;SDS011;7085;51.428;6.796;2022-07-19T01:47:32;2.90;;;2.08;;
14019;SDS011;7085;51.428;6.796;2022-07-19T01:49:59;2.90;;;2.25;;
14019;SDS011;7085;51.428;6.796;2022-07-19T01:52:26;2.78;;;2.25;;
14019;SDS011;7085;51.428;6.796;2022-07-19T01:54:53;5.38;;;2.60;;
14019;SDS011;7085;51.428;6.796;2022-07-19T01:57:21;3.63;;;2.08;;
14019;SDS011;7085;51.428;6.796;2022-07-19T01:59:48;5.68;;;2.30;;
14019;SDS011;7085;51.428;6.796;2022-07-19T02:02:15;3.08;;;2.38;;
14019;SDS011;7085;51.428;6.796;2022-07-19T02:04:42;4.68;;;1.98;;
14019;SDS011;7085;51.428;6.796;2022-07-19T02:07:09;4.13;;;2.70;;
14019;SDS011;7085;51.428;6.796;2022-07-19T02:09:36;4.05;;;2.60;;
14019;SDS011;7085;51.428;6.796;2022-07-19T02:12:03;2.83;;;2.40;;
14019;SDS011;7085;51.428;6.796;2022-07-19T02:14:32;2.40;;;1.85;;
14019;SDS011;7085;51.428;6.796;2022-07-19T02:16:59;2.83;;;2.25;;
14019;SDS011;7085;51.428;6.796;2022-07-19T02:19:26;7.22;;;3.17;;
14019;SDS011;7085;51.428;6.796;2022-07-19T02:21:53;3.00;;;2.35;;
14019;SDS011;7085;51.428;6.796;2022-07-19T02:24:20;4.72;;;2.35;;
14019;SDS011;7085;51.428;6.796;2022-07-19T02:26:47;3.65;;;2.65;;
14019;SDS011;7085;51.428;6.796;2022-07-19T02:29:14;5.63;;;2.63;;
14019;SDS011;7085;51.428;6.796;2022-07-19T02:31:43;5.63;;;3.28;;
14019;SDS011;7085;51.428;6.796;2022-07-19T02:34:10;3.42;;;2.70;;
14019;SDS011;7085;51.428;6.796;2022-07-19T02:36:37;4.93;;;2.17;;
14019;SDS011;7085;51.428;6.796;2022-07-19T02:39:04;3.08;;;2.47;;
14019;SDS011;7085;51.428;6.796;2022-07-19T02:41:31;3.15;;;1.92;;
14019;SDS011;7085;51.428;6.796;2022-07-19T02:43:58;3.33;;;2.17;;
14019;SDS011;7085;51.428;6.796;2022-07-19T02:46:25;3.45;;;1.80;;
14019;SDS011;7085;51.428;6.796;2022-07-19T02:48:54;4.63;;;2.38;;
14019;SDS011;7085;51.428;6.796;2022-07-19T02:51:21;4.50;;;2.60;;
14019;SDS011;7085;51.428;6.796;2022-07-19T02:53:48;3.55;;;2.13;;
14019;SDS011;7085;51.428;6.796;2022-07-19T02:56:15;3.47;;;2.42;;
14019;SDS011;7085;51.428;6.796;2022-07-19T02:58:42;2.58;;;1.98;;
14019;SDS011;7085;51.428;6.796;2022-07-19T03:01:09;3.60;;;2.10;;
14019;SDS011;7085;51.428;6.796;2022-07-19T03:03:36;4.65;;;2.13;;
14019;SDS011;7085;51.428;6.796;2022-07-19T03:06:11;3.28;;;2.05;;
14019;SDS011;7085;51.428;6.796;2022-07-19T03:08:38;2.90;;;2.25;;
14019;SDS011;7085;51.428;6.796;2022-07-19T03:11:05;4.00;;;2.15;;
14019;SDS011;7085;51.428;6.796;2022-07-19T03:13:33;5.45;;;3.10;;
14019;SDS011;7085;51.428;6.796;2022-07-19T03:16:00;5.45;;;2.05;;
14019;SDS011;7085;51.428;6.796;2022-07-19T03:18:27;4.20;;;2.13;;
14019;SDS011;7085;51.428;6.796;2022-07-19T03:20:54;5.75;;;2.22;;
14019;SDS011;7085;51.428;6.796;2022-07-19T03:23:24;3.00;;;2.42;;
14019;SDS011;7085;51.428;6.796;2022-07-19T03:25:51;4.53;;;2.53;;
14019;SDS011;7085;51.428;6.796;2022-07-19T03:28:18;4.70;;;2.63;;
14019;SDS011;7085;51.428;6.796;2022-07-19T03:30:46;3.33;;;1.98;;
14019;SDS011;7085;51.428;6.796;2022-07-19T03:33:13;3.88;;;2.00;;
14019;SDS011;7085;51.428;6.796;2022-07-19T03:35:41;4.15;;;2.38;;
14019;SDS011;7085;51.428;6.796;2022-07-19T03:38:08;2.67;;;2.22;;
14019;SDS011;7085;51.428;6.796;2022-07-19T03:40:36;2.50;;;2.22;;
14019;SDS011;7085;51.428;6.796;2022-07-19T03:43:04;2.72;;;2.00;;
14019;SDS011;7085;51.428;6.796;2022-07-19T03:45:31;2.97;;;2.28;;
14019;SDS011;7085;51.428;6.796;2022-07-19T03:47:58;4.90;;;2.78;;
14019;SDS011;7085;51.428;6.796;2022-07-19T03:50:25;7.50;;;2.72;;
14019;SDS011;7085;51.428;6.796;2022-07-19T03:52:52;3.75;;;2.50;;
14019;SDS011;7085;51.428;6.796;2022-07-19T03:55:19;2.90;;;2.30;;
14019;SDS011;7085;51.428;6.796;2022-07-19T03:57:47;9.50;;;2.47;;
14019;SDS011;7085;51.428;6.796;2022-07-19T04:00:15;4.35;;;2.42;;
14019;SDS011;7085;51.428;6.796;2022-07-19T04:02:42;4.80;;;2.40;;
14019;SDS011;7085;51.428;6.796;2022-07-19T04:05:09;3.75;;;2.33;;
14019;SDS011;7085;51.428;6.796;2022-07-19T04:07:37;3.63;;;2.60;;
14019;SDS011;7085;51.428;6.796;2022-07-19T04:10:04;2.50;;;2.30;;
14019;SDS011;7085;51.428;6.796;2022-07-19T04:12:31;4.05;;;2.40;;
14019;SDS011;7085;51.428;6.796;2022-07-19T04:15:00;4.10;;;2.20;;
14019;SDS011;7085;51.428;6.796;2022-07-19T04:17:27;3.47;;;2.35;;
14019;SDS011;7085;51.428;6.796;2022-07-19T04:19:54;2.55;;;2.15;;
14019;SDS011;7085;51.428;6.796;2022-07-19T04:22:21;4.85;;;2.13;;
14019;SDS011;7085;51.428;6.796;2022-07-19T04:24:49;3.90;;;2.03;;
14019;SDS011;7085;51.428;6.796;2022-07-19T04:27:16;4.22;;;1.95;;
14019;SDS011;7085;51.428;6.796;2022-07-19T04:29:44;3.08;;;2.10;;
14019;SDS011;7085;51.428;6.796;2022-07-19T04:32:12;3.58;;;2.38;;
14019;SDS011;7085;51.428;6.796;2022-07-19T04:34:39;4.95;;;2.20;;
14019;SDS011;7085;51.428;6.796;2022-07-19T04:37:06;4.20;;;2.00;;
14019;SDS011;7085;51.428;6.796;2022-07-19T04:39:33;3.88;;;2.28;;
14019;SDS011;7085;51.428;6.796;2022-07-19T04:42:00;5.95;;;2.50;;
14019;SDS011;7085;51.428;6.796;2022-07-19T04:44:27;2.03;;;1.85;;
14019;SDS011;7085;51.428;6.796;2022-07-19T04:46:54;6.13;;;2.28;;
14019;SDS011;7085;51.428;6.796;2022-07-19T04:49:23;8.60;;;2.28;;
14019;SDS011;7085;51.428;6.796;2022-07-19T04:51:50;3.67;;;2.70;;
14019;SDS011;7085;51.428;6.796;2022-07-19T04:54:17;6.65;;;2.60;;
14019;SDS011;7085;51.428;6.796;2022-07-19T04:56:44;3.50;;;2.22;;
14019;SDS011;7085;51.428;6.796;2022-07-19T04:59:11;4.50;;;2.40;;
14019;SDS011;7085;51.428;6.796;2022-07-19T05:01:38;5.75;;;2.58;;
14019;SDS011;7085;51.428;6.796;2022-07-19T05:04:05;5.28;;;2.33;;
14019;SDS011;7085;51.428;6.796;2022-07-19T05:06:33;6.88;;;2.40;;
14019;SDS011;7085;51.428;6.796;2022-07-19T05:09:00;7.70;;;2.70;;
14019;SDS011;7085;51.428;6.796;2022-07-19T05:11:27;5.53;;;2.90;;
14019;SDS011;7085;51.428;6.796;2022-07-19T05:13:54;4.35;;;2.70;;
14019;SDS011;7085;51.428;6.796;2022-07-19T05:16:21;4.18;;;3.00;;
14019;SDS011;7085;51.428;6.796;2022-07-19T05:18:49;4.82;;;2.88;;
14019;SDS011;7085;51.428;6.796;2022-07-19T05:21:16;6.18;;;3.17;;
14019;SDS011;7085;51.428;6.796;2022-07-19T05:23:44;7.72;;;3.03;;
14019;SDS011;7085;51.428;6.796;2022-07-19T05:26:11;7.05;;;2.88;;
14019;SDS011;7085;51.428;6.796;2022-07-19T05:28:38;5.60;;;2.75;;
14019;SDS011;7085;51.428;6.796;2022-07-19T05:31:05;7.10;;;3.30;;
14019;SDS011;7085;51.428;6.796;2022-07-19T05:33:32;5.20;;;3.17;;
14019;SDS011;7085;51.428;6.796;2022-07-19T05:35:59;7.82;;;3.60;;
14019;SDS011;7085;51.428;6.796;2022-07-19T05:38:26;9.30;;;3.28;;
14019;SDS011;7085;51.428;6.796;2022-07-19T05:40:56;6.93;;;3.15;;
14019;SDS011;7085;51.428;6.796;2022-07-19T05:43:23;8.15;;;3.13;;
14019;SDS011;7085;51.428;6.796;2022-07-19T05:45:50;7.13;;;3.35;;
14019;SDS011;7085;51.428;6.796;2022-07-19T05:48:17;4.65;;;2.85;;
14019;SDS011;7085;51.428;6.796;2022-07-19T05:50:44;7.95;;;3.80;;
14019;SDS011;7085;51.428;6.796;2022-07-19T05:53:11;8.73;;;3.33;;
14019;SDS011;7085;51.428;6.796;2022-07-19T05:55:38;4.85;;;3.00;;
14019;SDS011;7085;51.428;6.796;2022-07-19T05:58:06;7.20;;;2.75;;
14019;SDS011;7085;51.428;6.796;2022-07-19T06:00:33;6.32;;;2.95;;
14019;SDS011;7085;51.428;6.796;2022-07-19T06:03:00;3.78;;;2.50;;
14019;SDS011;7085;51.428;6.796;2022-07-19T06:05:28;5.70;;;2.63;;
14019;SDS011;7085;51.428;6.796;2022-07-19T06:07:55;4.35;;;3.22;;
14019;SDS011;7085;51.428;6.796;2022-07-19T06:10:22;7.32;;;3.20;;
14019;SDS011;7085;51.428;6.796;2022-07-19T06:12:49;10.45;;;3.30;;
14019;SDS011;7085;51.428;6.796;2022-07-19T06:15:17;5.63;;;3.13;;
14019;SDS011;7085;51.428;6.796;2022-07-19T06:17:44;6.78;;;3.40;;
14019;SDS011;7085;51.428;6.796;2022-07-19T06:20:11;7.00;;;3.70;;
14019;SDS011;7085;51.428;6.796;2022-07-19T06:22:38;5.57;;;3.38;;
14019;SDS011;7085;51.428;6.796;2022-07-19T06:25:06;3.67;;;2.97;;
14019;SDS011;7085;51.428;6.796;2022-07-19T06:27:33;6.10;;;3.15;;
14019;SDS011;7085;51.428;6.796;2022-07-19T06:30:00;9.60;;;2.40;;
14019;SDS011;7085;51.428;6.796;2022-07-19T06:32:29;9.50;;;2.72;;
14019;SDS011;7085;51.428;6.796;2022-07-19T06:34:56;4.72;;;2.55;;
14019;SDS011;7085;51.428;6.796;2022-07-19T06:37:23;3.00;;;2.13;;
14019;SDS011;7085;51.428;6.796;2022-07-19T06:39:50;6.47;;;2.60;;
14019;SDS011;7085;51.428;6.796;2022-07-19T06:42:17;5.20;;;2.20;;
14019;SDS011;7085;51.428;6.796;2022-07-19T06:44:44;7.40;;;2.10;;
14019;SDS011;7085;51.428;6.796;2022-07-19T06:47:11;6.90;;;2.65;;
14019;SDS011;7085;51.428;6.796;2022-07-19T06:49:39;7.55;;;2.10;;
14019;SDS011;7085;51.428;6.796;2022-07-19T06:52:06;5.22;;;2.53;;
14019;SDS011;7085;51.428;6.796;2022-07-19T06:54:34;9.15;;;2.35;;
14019;SDS011;7085;51.428;6.796;2022-07-19T06:57:01;5.13;;;2.05;;
14019;SDS011;7085;51.428;6.796;2022-07-19T06:59:28;4.00;;;2.00;;
14019;SDS011;7085;51.428;6.796;2022-07-19T07:01:55;4.90;;;2.55;;
14019;SDS011;7085;51.428;6.796;2022-07-19T07:04:22;3.30;;;2.10;;
14019;SDS011;7085;51.428;6.796;2022-07-19T07:06:50;2.72;;;1.90;;
14019;SDS011;7085;51.428;6.796;2022-07-19T07:09:17;2.78;;;2.08;;
14019;SDS011;7085;51.428;6.796;2022-07-19T07:11:44;2.65;;;2.10;;
14019;SDS011;7085;51.428;6.796;2022-07-19T07:14:11;3.03;;;1.83;;
14019;SDS011;7085;51.428;6.796;2022-07-19T07:16:38;3.70;;;1.67;;
14019;SDS011;7085;51.428;6.796;2022-07-19T07:19:05;3.30;;;1.80;;
14019;SDS011;7085;51.428;6.796;2022-07-19T07:21:33;4.70;;;1.60;;
14019;SDS011;7085;51.428;6.796;2022-07-19T07:24:02;2.80;;;2.10;;
14019;SDS011;7085;51.428;6.796;2022-07-19T07:26:29;7.18;;;2.15;;
14019;SDS011;7085;51.428;6.796;2022-07-19T07:28:56;4.13;;;2.30;;
14019;SDS011;7085;51.428;6.796;2022-07-19T07:31:23;3.55;;;2.38;;
14019;SDS011;7085;51.428;6.796;2022-07-19T07:33:50;3.85;;;2.33;;
14019;SDS011;7085;51.428;6.796;2022-07-19T07:36:17;5.70;;;2.47;;
14019;SDS011;7085;51.428;6.796;2022-07-19T07:38:45;5.97;;;2.05;;
14019;SDS011;7085;51.428;6.796;2022-07-19T07:41:13;4.93;;;1.95;;
14019;SDS011;7085;51.428;6.796;2022-07-19T07:43:40;6.13;;;2.00;;
14019;SDS011;7085;51.428;6.796;2022-07-19T07:46:08;4.85;;;1.73;;
14019;SDS011;7085;51.428;6.796;2022-07-19T07:48:35;4.10;;;2.03;;
14019;SDS011;7085;51.428;6.796;2022-07-19T07:51:02;6.22;;;2.22;;
14019;SDS011;7085;51.428;6.796;2022-07-19T07:53:29;8.90;;;2.40;;
14019;SDS011;7085;51.428;6.796;2022-07-19T07:55:56;7.45;;;2.10;;
14019;SDS011;7085;51.428;6.796;2022-07-19T07:58:25;3.55;;;2.30;;
14019;SDS011;7085;51.428;6.796;2022-07-19T08:00:52;7.82;;;2.53;;
14019;SDS011;7085;51.428;6.796;2022-07-19T08:03:19;10.02;;;2.80;;
14019;SDS011;7085;51.428;6.796;2022-07-19T08:05:46;7.20;;;3.53;;
14019;SDS011;7085;51.428;6.796;2022-07-19T08:08:14;4.38;;;3.20;;
14019;SDS011;7085;51.428;6.796;2022-07-19T08:10:41;6.78;;;3.30;;
14019;SDS011;7085;51.428;6.796;2022-07-19T08:13:08;4.35;;;3.03;;
14019;SDS011;7085;51.428;6.796;2022-07-19T08:15:37;5.80;;;2.50;;
14019;SDS011;7085;51.428;6.796;2022-07-19T08:18:04;6.03;;;2.20;;
14019;SDS011;7085;51.428;6.796;2022-07-19T08:20:31;6.75;;;2.47;;
14019;SDS011;7085;51.428;6.796;2022-07-19T08:22:58;7.15;;;2.67;;
14019;SDS011;7085;51.428;6.796;2022-07-19T08:25:26;6.88;;;2.35;;
14019;SDS011;7085;51.428;6.796;2022-07-19T08:27:53;7.82;;;2.38;;
14019;SDS011;7085;51.428;6.796;2022-07-19T08:30:20;6.88;;;2.53;;
14019;SDS011;7085;51.428;6.796;2022-07-19T08:32:48;3.90;;;2.00;;
14019;SDS011;7085;51.428;6.796;2022-07-19T08:35:15;4.55;;;1.85;;
14019;SDS011;7085;51.428;6.796;2022-07-19T08:37:42;5.93;;;2.13;;
14019;SDS011;7085;51.428;6.796;2022-07-19T08:40:10;5.90;;;1.92;;
14019;SDS011;7085;51.428;6.796;2022-07-19T08:42:37;3.33;;;1.88;;
14019;SDS011;7085;51.428;6.796;2022-07-19T08:45:05;5.00;;;2.10;;
14019;SDS011;7085;51.428;6.796;2022-07-19T08:47:32;6.00;;;2.33;;
14019;SDS011;7085;51.428;6.796;2022-07-19T08:50:02;7.65;;;2.10;;
14019;SDS011;7085;51.428;6.796;2022-07-19T08:52:30;3.60;;;1.80;;
14019;SDS011;7085;51.428;6.796;2022-07-19T08:54:58;4.88;;;2.05;;
14019;SDS011;7085;51.428;6.796;2022-07-19T08:57:25;6.63;;;2.28;;
14019;SDS011;7085;51.428;6.796;2022-07-19T09:00:11;3.60;;;1.98;;
14019;SDS011;7085;51.428;6.796;2022-07-19T09:02:38;4.68;;;2.08;;
14019;SDS011;7085;51.428;6.796;2022-07-19T09:05:07;3.10;;;1.95;;
14019;SDS011;7085;51.428;6.796;2022-07-19T09:07:35;2.28;;;1.65;;
14019;SDS011;7085;51.428;6.796;2022-07-19T09:10:14;6.45;;;2.10;;
14019;SDS011;7085;51.428;6.796;2022-07-19T09:12:58;7.38;;;2.10;;
14019;SDS011;7085;51.428;6.796;2022-07-19T09:15:38;4.13;;;2.15;;
14019;SDS011;7085;51.428;6.796;2022-07-19T09:18:05;5.30;;;1.83;;
14019;SDS011;7085;51.428;6.796;2022-07-19T09:20:34;2.10;;;1.90;;
14019;SDS011;7085;51.428;6.796;2022-07-19T09:23:01;5.30;;;1.73;;
14019;SDS011;7085;51.428;6.796;2022-07-19T09:25:35;6.28;;;1.88;;
14019;SDS011;7085;51.428;6.796;2022-07-19T09:28:03;5.90;;;2.00;;
14019;SDS011;7085;51.428;6.796;2022-07-19T09:30:33;5.97;;;2.13;;
14019;SDS011;7085;51.428;6.796;2022-07-19T09:33:09;2.50;;;1.88;;
14019;SDS011;7085;51.428;6.796;2022-07-19T09:35:39;2.63;;;1.60;;
14019;SDS011;7085;51.428;6.796;2022-07-19T09:38:20;1.73;;;1.50;;
14019;SDS011;7085;51.428;6.796;2022-07-19T09:40:47;4.07;;;2.13;;
14019;SDS011;7085;51.428;6.796;2022-07-19T09:43:14;3.22;;;1.58;;
14019;SDS011;7085;51.428;6.796;2022-07-19T09:45:42;3.13;;;1.80;;
14019;SDS011;7085;51.428;6.796;2022-07-19T09:48:10;3.88;;;1.83;;
14019;SDS011;7085;51.428;6.796;2022-07-19T09:50:38;5.22;;;1.80;;
14019;SDS011;7085;51.428;6.796;2022-07-19T09:53:06;5.20;;;1.95;;
14019;SDS011;7085;51.428;6.796;2022-07-19T09:55:33;2.95;;;2.00;;
14019;SDS011;7085;51.428;6.796;2022-07-19T09:58:00;5.18;;;1.80;;
14019;SDS011;7085;51.428;6.796;2022-07-19T10:00:28;1.73;;;1.52;;
14019;SDS011;7085;51.428;6.796;2022-07-19T10:02:57;3.85;;;1.50;;
14019;SDS011;7085;51.428;6.796;2022-07-19T10:05:25;5.03;;;1.55;;
14019;SDS011;7085;51.428;6.796;2022-07-19T10:07:54;4.22;;;2.00;;
14019;SDS011;7085;51.428;6.796;2022-07-19T10:10:22;3.78;;;1.55;;
14019;SDS011;7085;51.428;6.796;2022-07-19T10:12:50;6.00;;;1.80;;
14019;SDS011;7085;51.428;6.796;2022-07-19T10:15:17;5.63;;;2.10;;
14019;SDS011;7085;51.428;6.796;2022-07-19T10:18:09;3.75;;;1.60;;
14019;SDS011;7085;51.428;6.796;2022-07-19T10:20:36;2.33;;;1.75;;
14019;SDS011;7085;51.428;6.796;2022-07-19T10:23:05;5.43;;;1.73;;
14019;SDS011;7085;51.428;6.796;2022-07-19T10:25:37;2.70;;;1.75;;
14019;SDS011;7085;51.428;6.796;2022-07-19T10:28:05;7.47;;;1.80;;
14019;SDS011;7085;51.428;6.796;2022-07-19T10:30:41;3.75;;;1.80;;
14019;SDS011;7085;51.428;6.796;2022-07-19T10:35:50;3.88;;;1.52;;
14019;SDS011;7085;51.428;6.796;2022-07-19T10:38:18;3.40;;;1.90;;
14019;SDS011;7085;51.428;6.796;2022-07-19T10:40:46;2.33;;;1.63;;
14019;SDS011;7085;51.428;6.796;2022-07-19T10:43:14;2.08;;;1.60;;
14019;SDS011;7085;51.428;6.796;2022-07-19T10:45:41;3.15;;;1.50;;
14019;SDS011;7085;51.428;6.796;2022-07-19T10:48:10;2.28;;;1.70;;
14019;SDS011;7085;51.428;6.796;2022-07-19T10:50:41;4.50;;;1.77;;
14019;SDS011;7085;51.428;6.796;2022-07-19T10:53:08;2.10;;;1.60;;
14019;SDS011;7085;51.428;6.796;2022-07-19T10:55:37;2.45;;;1.50;;
14019;SDS011;7085;51.428;6.796;2022-07-19T10:58:08;5.20;;;1.90;;
14019;SDS011;7085;51.428;6.796;2022-07-19T11:00:45;2.95;;;1.73;;
14019;SDS011;7085;51.428;6.796;2022-07-19T11:03:26;1.73;;;1.63;;
14019;SDS011;7085;51.428;6.796;2022-07-19T11:05:54;3.80;;;1.52;;
14019;SDS011;7085;51.428;6.796;2022-07-19T11:08:29;4.32;;;1.70;;
14019;SDS011;7085;51.428;6.796;2022-07-19T11:11:02;4.25;;;1.55;;
14019;SDS011;7085;51.428;6.796;2022-07-19T11:13:29;1.60;;;1.50;;
14019;SDS011;7085;51.428;6.796;2022-07-19T11:15:57;3.58;;;1.50;;
14019;SDS011;7085;51.428;6.796;2022-07-19T11:18:24;4.15;;;1.70;;
14019;SDS011;7085;51.428;6.796;2022-07-19T11:20:51;5.10;;;1.70;;
14019;SDS011;7085;51.428;6.796;2022-07-19T11:23:19;2.05;;;1.45;;
14019;SDS011;7085;51.428;6.796;2022-07-19T11:25:46;3.72;;;1.60;;
14019;SDS011;7085;51.428;6.796;2022-07-19T11:28:20;4.15;;;1.35;;
14019;SDS011;7085;51.428;6.796;2022-07-19T11:30:48;1.67;;;1.50;;
14019;SDS011;7085;51.428;6.796;2022-07-19T11:33:16;1.63;;;1.40;;
14019;SDS011;7085;51.428;6.796;2022-07-19T11:35:53;2.83;;;1.33;;
14019;SDS011;7085;51.428;6.796;2022-07-19T11:38:20;3.78;;;1.52;;
14019;SDS011;7085;51.428;6.796;2022-07-19T11:40:47;1.55;;;1.45;;
14019;SDS011;7085;51.428;6.796;2022-07-19T11:43:14;1.67;;;1.48;;
14019;SDS011;7085;51.428;6.796;2022-07-19T11:45:42;3.65;;;1.70;;
14019;SDS011;7085;51.428;6.796;2022-07-19T11:48:11;3.67;;;1.40;;
14019;SDS011;7085;51.428;6.796;2022-07-19T11:50:38;3.45;;;1.25;;
14019;SDS011;7085;51.428;6.796;2022-07-19T11:53:06;3.78;;;1.58;;
14019;SDS011;7085;51.428;6.796;2022-07-19T11:55:34;1.60;;;1.42;;
14019;SDS011;7085;51.428;6.796;2022-07-19T11:58:05;2.15;;;1.27;;
14019;SDS011;7085;51.428;6.796;2022-07-19T12:00:33;2.53;;;1.40;;
14019;SDS011;7085;51.428;6.796;2022-07-19T12:03:02;2.72;;;1.10;;
14019;SDS011;7085;51.428;6.796;2022-07-19T12:05:32;3.50;;;1.30;;
14019;SDS011;7085;51.428;6.796;2022-07-19T12:08:02;3.80;;;1.70;;
14019;SDS011;7085;51.428;6.796;2022-07-19T12:10:37;4.22;;;1.70;;
14019;SDS011;7085;51.428;6.796;2022-07-19T12:13:06;2.35;;;1.40;;
14019;SDS011;7085;51.428;6.796;2022-07-19T12:15:44;5.35;;;1.77;;
14019;SDS011;7085;51.428;6.796;2022-07-19T12:18:15;3.92;;;1.70;;
14019;SDS011;7085;51.428;6.796;2022-07-19T12:20:43;1.98;;;1.40;;
14019;SDS011;7085;51.428;6.796;2022-07-19T12:23:11;3.78;;;1.50;;
14019;SDS011;7085;51.428;6.796;2022-07-19T12:25:39;3.95;;;1.70;;
14019;SDS011;7085;51.428;6.796;2022-07-19T12:28:06;2.75;;;1.48;;
14019;SDS011;7085;51.428;6.796;2022-07-19T12:30:33;4.70;;;1.67;;
14019;SDS011;7085;51.428;6.796;2022-07-19T12:33:05;2.25;;;1.30;;
14019;SDS011;7085;51.428;6.796;2022-07-19T12:35:41;2.38;;;1.58;;
14019;SDS011;7085;51.428;6.796;2022-07-19T12:38:09;4.50;;;1.45;;
14019;SDS011;7085;51.428;6.796;2022-07-19T12:40:37;2.63;;;1.55;;
14019;SDS011;7085;51.428;6.796;2022-07-19T12:43:05;2.60;;;1.58;;
14019;SDS011;7085;51.428;6.796;2022-07-19T12:45:32;2.22;;;1.60;;
14019;SDS011;7085;51.428;6.796;2022-07-19T12:48:00;3.15;;;1.08;;
14019;SDS011;7085;51.428;6.796;2022-07-19T12:50:29;2.40;;;1.70;;
14019;SDS011;7085;51.428;6.796;2022-07-19T12:52:59;3.30;;;1.58;;
14019;SDS011;7085;51.428;6.796;2022-07-19T12:55:27;2.65;;;1.55;;
14019;SDS011;7085;51.428;6.796;2022-07-19T12:57:56;2.13;;;1.75;;
14019;SDS011;7085;51.428;6.796;2022-07-19T13:00:25;2.60;;;1.52;;
14019;SDS011;7085;51.428;6.796;2022-07-19T13:02:53;3.38;;;1.20;;
14019;SDS011;7085;51.428;6.796;2022-07-19T13:05:21;4.13;;;1.58;;
14019;SDS011;7085;51.428;6.796;2022-07-19T13:07:48;3.10;;;1.67;;
14019;SDS011;7085;51.428;6.796;2022-07-19T13:10:17;3.00;;;1.70;;
14019;SDS011;7085;51.428;6.796;2022-07-19T13:12:44;3.17;;;1.58;;
14019;SDS011;7085;51.428;6.796;2022-07-19T13:15:12;4.20;;;1.73;;
14019;SDS011;7085;51.428;6.796;2022-07-19T13:17:39;2.22;;;1.50;;
14019;SDS011;7085;51.428;6.796;2022-07-19T13:20:07;9.32;;;2.00;;
14019;SDS011;7085;51.428;6.796;2022-07-19T13:22:35;4.80;;;2.03;;
14019;SDS011;7085;51.428;6.796;2022-07-19T13:25:03;2.55;;;1.48;;
14019;SDS011;7085;51.428;6.796;2022-07-19T13:27:32;3.30;;;1.60;;
14019;SDS011;7085;51.428;6.796;2022-07-19T13:29:59;2.50;;;1.55;;
14019;SDS011;7085;51.428;6.796;2022-07-19T13:32:26;2.83;;;1.77;;
14019;SDS011;7085;51.428;6.796;2022-07-19T13:34:56;1.58;;;1.20;;
14019;SDS011;7085;51.428;6.796;2022-07-19T13:37:22;4.22;;;1.67;;
14019;SDS011;7085;51.428;6.796;2022-07-19T13:39:49;3.72;;;1.52;;
14019;SDS011;7085;51.428;6.796;2022-07-19T13:42:15;2.40;;;1.40;;
14019;SDS011;7085;51.428;6.796;2022-07-19T13:44:44;1.58;;;1.38;;
14019;SDS011;7085;51.428;6.796;2022-07-19T13:47:10;4.65;;;1.38;;
14019;SDS011;7085;51.428;6.796;2022-07-19T13:49:37;2.78;;;1.50;;
14019;SDS011;7085;51.428;6.796;2022-07-19T13:52:04;3.40;;;1.60;;
14019;SDS011;7085;51.428;6.796;2022-07-19T13:54:30;4.13;;;1.55;;
14019;SDS011;7085;51.428;6.796;2022-07-19T13:56:57;2.45;;;1.50;;
14019;SDS011;7085;51.428;6.796;2022-07-19T13:59:24;3.92;;;1.70;;
14019;SDS011;7085;51.428;6.796;2022-07-19T14:01:52;3.83;;;1.80;;
14019;SDS011;7085;51.428;6.796;2022-07-19T14:04:19;3.15;;;1.60;;
14019;SDS011;7085;51.428;6.796;2022-07-19T14:06:46;3.03;;;2.05;;
14019;SDS011;7085;51.428;6.796;2022-07-19T14:09:13;4.80;;;1.88;;
14019;SDS011;7085;51.428;6.796;2022-07-19T14:11:39;5.55;;;1.88;;
14019;SDS011;7085;51.428;6.796;2022-07-19T14:14:06;4.88;;;1.70;;
14019;SDS011;7085;51.428;6.796;2022-07-19T14:16:33;3.08;;;1.55;;
14019;SDS011;7085;51.428;6.796;2022-07-19T14:19:01;3.10;;;1.80;;
14019;SDS011;7085;51.428;6.796;2022-07-19T14:21:28;3.13;;;1.73;;
14019;SDS011;7085;51.428;6.796;2022-07-19T14:23:58;3.70;;;1.50;;
14019;SDS011;7085;51.428;6.796;2022-07-19T14:26:25;3.63;;;1.80;;
14019;SDS011;7085;51.428;6.796;2022-07-19T14:28:52;3.80;;;1.58;;
14019;SDS011;7085;51.428;6.796;2022-07-19T14:31:19;3.38;;;1.65;;
14019;SDS011;7085;51.428;6.796;2022-07-19T14:33:45;2.50;;;1.67;;
14019;SDS011;7085;51.428;6.796;2022-07-19T14:36:13;3.00;;;1.50;;
14019;SDS011;7085;51.428;6.796;2022-07-19T14:38:40;3.80;;;1.60;;
14019;SDS011;7085;51.428;6.796;2022-07-19T14:41:07;3.58;;;1.75;;
14019;SDS011;7085;51.428;6.796;2022-07-19T14:43:34;4.63;;;1.30;;
14019;SDS011;7085;51.428;6.796;2022-07-19T14:46:00;3.20;;;1.48;;
14019;SDS011;7085;51.428;6.796;2022-07-19T14:48:27;3.25;;;1.35;;
14019;SDS011;7085;51.428;6.796;2022-07-19T14:50:54;1.70;;;1.50;;
14019;SDS011;7085;51.428;6.796;2022-07-19T14:53:22;6.28;;;1.83;;
14019;SDS011;7085;51.428;6.796;2022-07-19T14:55:49;3.63;;;2.03;;
14019;SDS011;7085;51.428;6.796;2022-07-19T14:58:15;3.88;;;1.85;;
14019;SDS011;7085;51.428;6.796;2022-07-19T15:00:42;3.50;;;1.52;;
14019;SDS011;7085;51.428;6.796;2022-07-19T15:03:09;2.85;;;1.50;;
14019;SDS011;7085;51.428;6.796;2022-07-19T15:05:36;1.67;;;1.50;;
14019;SDS011;7085;51.428;6.796;2022-07-19T15:08:02;2.90;;;1.50;;